sensor_id;sensor_type;location;lat;lon;timestamp;pressure;altitude;pressure_sealevel;temperature;humidity
19457;BME280;9867;48.094;11.478;2023-01-29T00:00:02;96007.28;;;0.14;100.00
19457;BME280;9867;48.094;11.478;2023-01-29T00:02:38;96008.19;;;0.13;100.00
19457;BME280;9867;48.094;11.478;2023-01-29T00:05:06;96020.00;;;0.12;100.00
19457;BME280;9867;48.094;11.478;2023-01-29T00:07:53;96009.16;;;0.23;100.00
19457;BME280;9867;48.094;11.478;2023-01-29T00:10:19;96018.06;;;0.27;100.00
19457;BME280;9867;48.094;11.478;2023-01-29T00:12:45;96012.69;;;0.20;100.00
19457;BME280;9867;48.094;11.478;2023-01-29T00:15:12;96009.81;;;0.14;100.00
19457;BME280;9867;48.094;11.478;2023-01-29T00:17:38;96011.63;;;0.12;100.00
19457;BME280;9867;48.094;11.478;2023-01-29T00:20:06;96009.41;;;0.53;100.00
19457;BME280;9867;48.094;11.478;2023-01-29T00:22:33;96017.78;;;0.54;100.00
19457;BME280;9867;48.094;11.478;2023-01-29T00:25:00;96014.44;;;0.42;100.00
19457;BME280;9867;48.094;11.478;2023-01-29T00:27:27;96013.06;;;0.38;100.00
19457;BME280;9867;48.094;11.478;2023-01-29T00:29:53;96018.19;;;0.25;100.00
19457;BME280;9867;48.094;11.478;2023-01-29T00:32:35;96018.13;;;0.38;100.00
19457;BME280;9867;48.094;11.478;2023-01-29T00:35:01;96028.66;;;0.32;100.00
19457;BME280;9867;48.094;11.478;2023-01-29T00:37:28;96025.22;;;0.33;100.00
19457;BME280;9867;48.094;11.478;2023-01-29T00:39:54;96039.16;;;0.15;100.00
19457;BME280;9867;48.094;11.478;2023-01-29T00:42:21;96037.59;;;0.01;100.00
19457;BME280;9867;48.094;11.478;2023-01-29T00:45:06;96027.47;;;0.25;100.00
19457;BME280;9867;48.094;11.478;2023-01-29T00:47:33;96023.19;;;0.72;100.00
19457;BME280;9867;48.094;11.478;2023-01-29T00:50:00;96029.28;;;1.02;100.00
19457;BME280;9867;48.094;11.478;2023-01-29T00:52:27;96027.13;;;1.52;100.00
19457;BME280;9867;48.094;11.478;2023-01-29T00:54:55;96023.22;;;4.13;100.00
19457;BME280;9867;48.094;11.478;2023-01-29T00:57:23;96042.00;;;2.72;100.00
19457;BME280;9867;48.094;11.478;2023-01-29T00:59:50;96040.63;;;1.74;100.00
19457;BME280;9867;48.094;11.478;2023-01-29T01:02:17;96039.59;;;1.22;100.00
19457;BME280;9867;48.094;11.478;2023-01-29T01:05:03;96031.44;;;0.74;100.00
19457;BME280;9867;48.094;11.478;2023-01-29T01:07:31;96026.16;;;0.54;100.00
19457;BME280;9867;48.094;11.478;2023-01-29T01:09:57;96038.78;;;0.54;100.00
19457;BME280;9867;48.094;11.478;2023-01-29T01:12:44;96020.28;;;0.31;100.00
19457;BME280;9867;48.094;11.478;2023-01-29T01:15:11;96024.94;;;0.25;100.00
19457;BME280;9867;48.094;11.478;2023-01-29T01:17:39;96026.66;;;0.13;100.00
19457;BME280;9867;48.094;11.478;2023-01-29T01:20:06;96028.81;;;0.07;100.00
19457;BME280;9867;48.094;11.478;2023-01-29T01:22:33;96037.75;;;0.11;100.00
19457;BME280;9867;48.094;11.478;2023-01-29T01:25:00;96039.41;;;0.23;100.00
19457;BME280;9867;48.094;11.478;2023-01-29T01:27:27;96028.31;;;0.02;100.00
19457;BME280;9867;48.094;11.478;2023-01-29T01:29:54;96034.38;;;0.23;100.00
19457;BME280;9867;48.094;11.478;2023-01-29T01:32:20;96037.34;;;0.17;100.00
19457;BME280;9867;48.094;11.478;2023-01-29T01:34:47;96034.34;;;0.12;100.00
19457;BME280;9867;48.094;11.478;2023-01-29T01:37:13;96024.09;;;0.02;100.00
19457;BME280;9867;48.094;11.478;2023-01-29T01:39:40;96042.00;;;0.10;100.00
19457;BME280;9867;48.094;11.478;2023-01-29T01:42:10;96045.06;;;0.03;100.00
19457;BME280;9867;48.094;11.478;2023-01-29T01:44:51;96059.47;;;-0.11;100.00
19457;BME280;9867;48.094;11.478;2023-01-29T01:47:21;96038.19;;;-0.07;100.00
19457;BME280;9867;48.094;11.478;2023-01-29T01:49:50;96036.34;;;-0.05;100.00
19457;BME280;9867;48.094;11.478;2023-01-29T01:52:18;96034.75;;;0.06;100.00
19457;BME280;9867;48.094;11.478;2023-01-29T01:54:46;96037.00;;;0.21;100.00
19457;BME280;9867;48.094;11.478;2023-01-29T01:57:16;96036.91;;;0.23;100.00
19457;BME280;9867;48.094;11.478;2023-01-29T01:59:47;96043.94;;;0.07;100.00
19457;BME280;9867;48.094;11.478;2023-01-29T02:02:16;96033.97;;;0.05;100.00
19457;BME280;9867;48.094;11.478;2023-01-29T02:05:02;96042.13;;;0.09;100.00
19457;BME280;9867;48.094;11.478;2023-01-29T02:07:48;96045.03;;;-0.09;100.00
19457;BME280;9867;48.094;11.478;2023-01-29T02:10:37;96044.53;;;0.10;100.00
19457;BME280;9867;48.094;11.478;2023-01-29T02:13:06;96050.50;;;0.09;100.00
19457;BME280;9867;48.094;11.478;2023-01-29T02:15:33;96055.16;;;0.03;100.00
19457;BME280;9867;48.094;11.478;2023-01-29T02:18:01;96048.81;;;0.21;100.00
19457;BME280;9867;48.094;11.478;2023-01-29T02:20:29;96061.06;;;0.14;100.00
19457;BME280;9867;48.094;11.478;2023-01-29T02:23:14;96060.56;;;0.09;100.00
19457;BME280;9867;48.094;11.478;2023-01-29T02:26:18;96060.56;;;0.09;100.00
19457;BME280;9867;48.094;11.478;2023-01-29T02:28:56;96056.75;;;0.04;100.00
19457;BME280;9867;48.094;11.478;2023-01-29T02:31:50;96050.38;;;0.11;100.00
19457;BME280;9867;48.094;11.478;2023-01-29T02:34:28;96048.28;;;0.05;100.00
19457;BME280;9867;48.094;11.478;2023-01-29T02:37:17;96040.28;;;-0.01;100.00
19457;BME280;9867;48.094;11.478;2023-01-29T02:39:51;96040.94;;;0.02;100.00
19457;BME280;9867;48.094;11.478;2023-01-29T02:42:24;96037.66;;;0.12;100.00
19457;BME280;9867;48.094;11.478;2023-01-29T02:44:55;96026.75;;;0.12;100.00
19457;BME280;9867;48.094;11.478;2023-01-29T02:47:30;96037.88;;;0.09;100.00
19457;BME280;9867;48.094;11.478;2023-01-29T02:50:03;96032.69;;;-0.01;100.00
19457;BME280;9867;48.094;11.478;2023-01-29T02:52:35;96028.84;;;-0.17;100.00
19457;BME280;9867;48.094;11.478;2023-01-29T02:55:05;96032.84;;;-0.15;100.00
19457;BME280;9867;48.094;11.478;2023-01-29T02:57:36;96030.22;;;-0.13;100.00
19457;BME280;9867;48.094;11.478;2023-01-29T03:00:08;96030.34;;;-0.15;100.00
19457;BME280;9867;48.094;11.478;2023-01-29T03:02:41;96024.16;;;-0.11;100.00
19457;BME280;9867;48.094;11.478;2023-01-29T03:05:13;96028.72;;;-0.16;100.00
19457;BME280;9867;48.094;11.478;2023-01-29T03:07:46;96021.31;;;-0.06;100.00
19457;BME280;9867;48.094;11.478;2023-01-29T03:10:27;96008.63;;;-0.05;100.00
19457;BME280;9867;48.094;11.478;2023-01-29T03:12:56;96022.47;;;0.01;100.00
19457;BME280;9867;48.094;11.478;2023-01-29T03:15:28;96027.88;;;-0.04;100.00
19457;BME280;9867;48.094;11.478;2023-01-29T03:18:32;96029.88;;;0.15;100.00
19457;BME280;9867;48.094;11.478;2023-01-29T03:21:05;96032.19;;;0.29;100.00
19457;BME280;9867;48.094;11.478;2023-01-29T03:23:55;96024.13;;;0.13;100.00
19457;BME280;9867;48.094;11.478;2023-01-29T03:26:42;96030.91;;;0.24;100.00
19457;BME280;9867;48.094;11.478;2023-01-29T03:29:34;96028.69;;;0.08;100.00
19457;BME280;9867;48.094;11.478;2023-01-29T03:32:26;96034.16;;;-0.09;100.00
19457;BME280;9867;48.094;11.478;2023-01-29T03:34:57;96034.84;;;-0.07;100.00
19457;BME280;9867;48.094;11.478;2023-01-29T03:37:30;96035.47;;;0.08;100.00
19457;BME280;9867;48.094;11.478;2023-01-29T03:40:02;96041.78;;;0.13;100.00
19457;BME280;9867;48.094;11.478;2023-01-29T03:42:39;96043.63;;;0.11;100.00
19457;BME280;9867;48.094;11.478;2023-01-29T03:45:12;96041.09;;;0.11;100.00
19457;BME280;9867;48.094;11.478;2023-01-29T03:47:52;96035.78;;;0.03;100.00
19457;BME280;9867;48.094;11.478;2023-01-29T03:50:32;96024.66;;;-0.06;100.00
19457;BME280;9867;48.094;11.478;2023-01-29T03:53:07;96030.84;;;0.02;100.00
19457;BME280;9867;48.094;11.478;2023-01-29T03:55:40;96023.88;;;0.05;100.00
19457;BME280;9867;48.094;11.478;2023-01-29T03:58:19;96029.88;;;0.15;100.00
19457;BME280;9867;48.094;11.478;2023-01-29T04:00:52;96016.78;;;0.10;100.00
19457;BME280;9867;48.094;11.478;2023-01-29T04:03:24;96006.22;;;0.05;100.00
19457;BME280;9867;48.094;11.478;2023-01-29T04:05:56;96012.75;;;0.08;100.00
19457;BME280;9867;48.094;11.478;2023-01-29T04:08:34;96009.75;;;0.03;100.00
19457;BME280;9867;48.094;11.478;2023-01-29T04:11:07;95993.94;;;0.00;100.00
19457;BME280;9867;48.094;11.478;2023-01-29T04:13:36;95994.19;;;0.09;100.00
19457;BME280;9867;48.094;11.478;2023-01-29T04:16:05;95999.06;;;-0.12;100.00
19457;BME280;9867;48.094;11.478;2023-01-29T04:18:53;95997.94;;;-0.08;100.00
19457;BME280;9867;48.094;11.478;2023-01-29T04:21:30;95999.28;;;-0.15;100.00
19457;BME280;9867;48.094;11.478;2023-01-29T04:23:58;96007.59;;;-0.02;100.00
19457;BME280;9867;48.094;11.478;2023-01-29T04:26:36;96001.53;;;0.12;100.00
19457;BME280;9867;48.094;11.478;2023-01-29T04:29:20;95999.56;;;0.04;100.00
19457;BME280;9867;48.094;11.478;2023-01-29T04:31:59;96001.75;;;0.09;100.00
19457;BME280;9867;48.094;11.478;2023-01-29T04:34:37;95999.34;;;0.07;100.00
19457;BME280;9867;48.094;11.478;2023-01-29T04:37:12;95998.97;;;-0.11;100.00
19457;BME280;9867;48.094;11.478;2023-01-29T04:39:48;96002.47;;;-0.24;100.00
19457;BME280;9867;48.094;11.478;2023-01-29T04:42:23;96004.41;;;-0.28;100.00
19457;BME280;9867;48.094;11.478;2023-01-29T04:45:00;96006.84;;;-0.39;100.00
19457;BME280;9867;48.094;11.478;2023-01-29T04:47:34;96005.22;;;-0.51;100.00
19457;BME280;9867;48.094;11.478;2023-01-29T04:50:12;95997.16;;;-0.56;100.00
19457;BME280;9867;48.094;11.478;2023-01-29T04:52:46;96015.50;;;-0.54;100.00
19457;BME280;9867;48.094;11.478;2023-01-29T04:55:22;96025.69;;;-0.56;100.00
19457;BME280;9867;48.094;11.478;2023-01-29T04:57:55;96013.56;;;-0.27;100.00
19457;BME280;9867;48.094;11.478;2023-01-29T05:00:28;96005.81;;;-0.24;100.00
19457;BME280;9867;48.094;11.478;2023-01-29T05:02:58;96002.66;;;-0.04;100.00
19457;BME280;9867;48.094;11.478;2023-01-29T05:05:27;95999.34;;;0.07;100.00
19457;BME280;9867;48.094;11.478;2023-01-29T05:07:55;95996.34;;;0.02;100.00
19457;BME280;9867;48.094;11.478;2023-01-29T05:10:23;96006.53;;;0.00;100.00
19457;BME280;9867;48.094;11.478;2023-01-29T05:12:55;96012.25;;;-0.09;100.00
19457;BME280;9867;48.094;11.478;2023-01-29T05:15:26;96014.91;;;0.01;100.00
19457;BME280;9867;48.094;11.478;2023-01-29T05:17:59;96025.84;;;0.13;100.00
19457;BME280;9867;48.094;11.478;2023-01-29T05:20:31;96020.38;;;0.19;100.00
19457;BME280;9867;48.094;11.478;2023-01-29T05:22:58;96019.63;;;0.06;100.00
19457;BME280;9867;48.094;11.478;2023-01-29T05:25:26;96030.84;;;0.02;100.00
19457;BME280;9867;48.094;11.478;2023-01-29T05:27:53;96030.97;;;0.00;100.00
19457;BME280;9867;48.094;11.478;2023-01-29T05:30:34;96030.66;;;-0.19;100.00
19457;BME280;9867;48.094;11.478;2023-01-29T05:33:02;96041.19;;;-0.25;100.00
19457;BME280;9867;48.094;11.478;2023-01-29T05:35:30;96049.28;;;-0.09;100.00
19457;BME280;9867;48.094;11.478;2023-01-29T05:37:57;96053.72;;;-0.37;100.00
19457;BME280;9867;48.094;11.478;2023-01-29T05:40:24;96062.41;;;-0.41;100.00
19457;BME280;9867;48.094;11.478;2023-01-29T05:42:50;96054.09;;;-0.54;100.00
19457;BME280;9867;48.094;11.478;2023-01-29T05:45:17;96053.09;;;-0.51;100.00
19457;BME280;9867;48.094;11.478;2023-01-29T05:47:44;96059.41;;;-0.22;100.00
19457;BME280;9867;48.094;11.478;2023-01-29T05:50:11;96056.56;;;0.07;100.00
19457;BME280;9867;48.094;11.478;2023-01-29T05:52:39;96065.13;;;0.04;100.00
19457;BME280;9867;48.094;11.478;2023-01-29T05:55:07;96068.00;;;-0.01;100.00
19457;BME280;9867;48.094;11.478;2023-01-29T05:57:34;96062.00;;;-0.11;100.00
19457;BME280;9867;48.094;11.478;2023-01-29T06:00:00;96057.75;;;-0.10;100.00
19457;BME280;9867;48.094;11.478;2023-01-29T06:02:28;96051.22;;;-0.13;100.00
19457;BME280;9867;48.094;11.478;2023-01-29T06:04:55;96050.31;;;-0.12;100.00
19457;BME280;9867;48.094;11.478;2023-01-29T06:07:21;96051.38;;;-0.03;100.00
19457;BME280;9867;48.094;11.478;2023-01-29T06:09:48;96055.56;;;-0.15;100.00
19457;BME280;9867;48.094;11.478;2023-01-29T06:12:14;96052.97;;;-0.02;100.00
19457;BME280;9867;48.094;11.478;2023-01-29T06:14:42;96047.69;;;0.01;100.00
19457;BME280;9867;48.094;11.478;2023-01-29T06:17:08;96047.84;;;-0.01;100.00
19457;BME280;9867;48.094;11.478;2023-01-29T06:19:35;96058.19;;;-0.16;100.00
19457;BME280;9867;48.094;11.478;2023-01-29T06:22:01;96043.91;;;-0.05;100.00
19457;BME280;9867;48.094;11.478;2023-01-29T06:24:28;96033.06;;;-0.18;100.00
19457;BME280;9867;48.094;11.478;2023-01-29T06:26:55;96043.94;;;-0.28;100.00
19457;BME280;9867;48.094;11.478;2023-01-29T06:29:21;96047.50;;;-0.20;100.00
19457;BME280;9867;48.094;11.478;2023-01-29T06:31:48;96048.19;;;-0.18;100.00
19457;BME280;9867;48.094;11.478;2023-01-29T06:34:14;96052.66;;;-0.21;100.00
19457;BME280;9867;48.094;11.478;2023-01-29T06:36:41;96055.72;;;-0.29;100.00
19457;BME280;9867;48.094;11.478;2023-01-29T06:39:07;96045.75;;;-0.30;100.00
19457;BME280;9867;48.094;11.478;2023-01-29T06:41:34;96057.97;;;-0.13;100.00
19457;BME280;9867;48.094;11.478;2023-01-29T06:44:01;96053.56;;;-0.22;100.00
19457;BME280;9867;48.094;11.478;2023-01-29T06:46:27;96054.38;;;-0.22;100.00
19457;BME280;9867;48.094;11.478;2023-01-29T06:48:56;96057.78;;;-0.23;100.00
19457;BME280;9867;48.094;11.478;2023-01-29T06:51:23;96053.25;;;-0.18;100.00
19457;BME280;9867;48.094;11.478;2023-01-29T06:53:49;96056.34;;;-0.14;100.00
19457;BME280;9867;48.094;11.478;2023-01-29T06:56:15;96057.47;;;-0.18;100.00
19457;BME280;9867;48.094;11.478;2023-01-29T06:58:42;96061.13;;;-0.22;100.00
19457;BME280;9867;48.094;11.478;2023-01-29T07:01:10;96057.66;;;-0.09;100.00
19457;BME280;9867;48.094;11.478;2023-01-29T07:03:54;96051.91;;;-0.11;100.00
19457;BME280;9867;48.094;11.478;2023-01-29T07:06:26;96041.59;;;-0.08;100.00
19457;BME280;9867;48.094;11.478;2023-01-29T07:08:52;96047.41;;;-0.18;100.00
19457;BME280;9867;48.094;11.478;2023-01-29T07:11:19;96055.75;;;-0.42;100.00
19457;BME280;9867;48.094;11.478;2023-01-29T07:13:48;96053.78;;;-0.49;100.00
19457;BME280;9867;48.094;11.478;2023-01-29T07:16:15;96050.91;;;-0.32;100.00
19457;BME280;9867;48.094;11.478;2023-01-29T07:18:42;96051.28;;;-0.25;100.00
19457;BME280;9867;48.094;11.478;2023-01-29T07:21:09;96046.16;;;-0.13;100.00
19457;BME280;9867;48.094;11.478;2023-01-29T07:23:35;96051.59;;;-0.06;100.00
19457;BME280;9867;48.094;11.478;2023-01-29T07:26:03;96028.81;;;0.07;100.00
19457;BME280;9867;48.094;11.478;2023-01-29T07:28:30;96034.75;;;0.06;100.00
19457;BME280;9867;48.094;11.478;2023-01-29T07:30:57;96036.97;;;0.10;100.00
19457;BME280;9867;48.094;11.478;2023-01-29T07:33:25;96034.34;;;0.12;100.00
19457;BME280;9867;48.094;11.478;2023-01-29T07:35:53;96034.13;;;0.15;100.00
19457;BME280;9867;48.094;11.478;2023-01-29T07:38:19;96029.72;;;0.06;100.00
19457;BME280;9867;48.094;11.478;2023-01-29T07:40:45;96034.28;;;0.36;100.00
19457;BME280;9867;48.094;11.478;2023-01-29T07:43:12;96035.72;;;2.97;100.00
19457;BME280;9867;48.094;11.478;2023-01-29T07:45:39;96035.09;;;3.73;100.00
19457;BME280;9867;48.094;11.478;2023-01-29T07:48:08;96027.34;;;4.04;100.00
19457;BME280;9867;48.094;11.478;2023-01-29T07:50:37;96022.56;;;4.01;100.00
19457;BME280;9867;48.094;11.478;2023-01-29T07:53:03;96030.81;;;3.64;100.00
19457;BME280;9867;48.094;11.478;2023-01-29T07:55:30;96028.81;;;4.06;100.00
19457;BME280;9867;48.094;11.478;2023-01-29T07:57:57;96034.59;;;4.18;100.00
19457;BME280;9867;48.094;11.478;2023-01-29T08:00:24;96035.91;;;4.32;100.00
19457;BME280;9867;48.094;11.478;2023-01-29T08:02:52;96028.81;;;4.45;100.00
19457;BME280;9867;48.094;11.478;2023-01-29T08:05:19;96032.28;;;3.67;100.00
19457;BME280;9867;48.094;11.478;2023-01-29T08:07:51;96028.22;;;3.35;100.00
19457;BME280;9867;48.094;11.478;2023-01-29T08:10:32;96036.03;;;4.11;100.00
19457;BME280;9867;48.094;11.478;2023-01-29T08:13:00;96025.28;;;4.56;100.00
19457;BME280;9867;48.094;11.478;2023-01-29T08:15:27;96019.66;;;4.62;100.00
19457;BME280;9867;48.094;11.478;2023-01-29T08:17:54;96031.47;;;3.47;100.00
19457;BME280;9867;48.094;11.478;2023-01-29T08:20:40;96029.91;;;3.16;100.00
19457;BME280;9867;48.094;11.478;2023-01-29T08:23:15;96019.06;;;2.73;100.00
19457;BME280;9867;48.094;11.478;2023-01-29T08:25:41;96028.41;;;2.73;100.00
19457;BME280;9867;48.094;11.478;2023-01-29T08:28:08;96026.50;;;2.96;100.00
19457;BME280;9867;48.094;11.478;2023-01-29T08:30:36;96031.31;;;2.99;100.00
19457;BME280;9867;48.094;11.478;2023-01-29T08:33:03;96042.81;;;2.52;100.00
19457;BME280;9867;48.094;11.478;2023-01-29T08:35:30;96056.22;;;1.90;100.00
19457;BME280;9867;48.094;11.478;2023-01-29T08:37:58;96042.38;;;2.67;100.00
19457;BME280;9867;48.094;11.478;2023-01-29T08:40:26;96055.69;;;1.75;100.00
19457;BME280;9867;48.094;11.478;2023-01-29T08:42:57;96046.59;;;3.18;100.00
19457;BME280;9867;48.094;11.478;2023-01-29T08:45:27;96048.91;;;4.00;100.00
19457;BME280;9867;48.094;11.478;2023-01-29T08:47:53;96055.97;;;3.96;100.00
19457;BME280;9867;48.094;11.478;2023-01-29T08:50:20;96058.19;;;3.61;100.00
19457;BME280;9867;48.094;11.478;2023-01-29T08:52:47;96064.50;;;3.86;100.00
19457;BME280;9867;48.094;11.478;2023-01-29T08:55:13;96067.41;;;3.22;100.00
19457;BME280;9867;48.094;11.478;2023-01-29T08:57:41;96077.81;;;2.67;100.00
19457;BME280;9867;48.094;11.478;2023-01-29T09:00:08;96076.22;;;3.18;100.00
19457;BME280;9867;48.094;11.478;2023-01-29T09:02:35;96078.03;;;3.46;100.00
19457;BME280;9867;48.094;11.478;2023-01-29T09:05:02;96074.09;;;3.23;100.00
19457;BME280;9867;48.094;11.478;2023-01-29T09:07:29;96078.44;;;2.81;100.00
19457;BME280;9867;48.094;11.478;2023-01-29T09:09:55;96081.78;;;2.81;100.00
19457;BME280;9867;48.094;11.478;2023-01-29T09:12:22;96083.22;;;2.32;100.00
19457;BME280;9867;48.094;11.478;2023-01-29T09:14:49;96086.22;;;2.89;100.00
19457;BME280;9867;48.094;11.478;2023-01-29T09:17:15;96088.41;;;3.33;100.00
19457;BME280;9867;48.094;11.478;2023-01-29T09:19:42;96105.38;;;2.61;100.00
19457;BME280;9867;48.094;11.478;2023-01-29T09:22:09;96106.75;;;2.12;100.00
19457;BME280;9867;48.094;11.478;2023-01-29T09:24:37;96111.88;;;2.54;100.00
19457;BME280;9867;48.094;11.478;2023-01-29T09:27:03;96114.78;;;1.74;100.00
19457;BME280;9867;48.094;11.478;2023-01-29T09:29:31;96114.81;;;1.63;100.00
19457;BME280;9867;48.094;11.478;2023-01-29T09:32:02;96115.13;;;2.45;100.00
19457;BME280;9867;48.094;11.478;2023-01-29T09:34:29;96112.72;;;3.05;100.00
19457;BME280;9867;48.094;11.478;2023-01-29T09:36:55;96109.75;;;3.31;100.00
19457;BME280;9867;48.094;11.478;2023-01-29T09:39:22;96111.06;;;3.65;100.00
19457;BME280;9867;48.094;11.478;2023-01-29T09:41:52;96118.63;;;3.16;100.00
19457;BME280;9867;48.094;11.478;2023-01-29T09:44:29;96116.94;;;3.66;100.00
19457;BME280;9867;48.094;11.478;2023-01-29T09:47:01;96122.94;;;4.43;100.00
19457;BME280;9867;48.094;11.478;2023-01-29T09:49:33;96131.13;;;3.38;100.00
19457;BME280;9867;48.094;11.478;2023-01-29T09:52:05;96133.59;;;2.03;100.00
19457;BME280;9867;48.094;11.478;2023-01-29T09:54:44;96135.06;;;1.29;100.00
19457;BME280;9867;48.094;11.478;2023-01-29T09:57:18;96130.81;;;1.30;100.00
19457;BME280;9867;48.094;11.478;2023-01-29T09:59:45;96127.47;;;1.07;100.00
19457;BME280;9867;48.094;11.478;2023-01-29T10:02:21;96121.72;;;0.94;100.00
19457;BME280;9867;48.094;11.478;2023-01-29T10:05:06;96115.97;;;1.03;100.00
19457;BME280;9867;48.094;11.478;2023-01-29T10:08:03;96109.31;;;1.02;100.00
19457;BME280;9867;48.094;11.478;2023-01-29T10:10:42;96109.91;;;0.94;100.00
19457;BME280;9867;48.094;11.478;2023-01-29T10:13:20;96110.00;;;0.93;100.00
19457;BME280;9867;48.094;11.478;2023-01-29T10:16:15;96116.66;;;0.94;100.00
19457;BME280;9867;48.094;11.478;2023-01-29T10:19:04;96099.78;;;1.93;100.00
19457;BME280;9867;48.094;11.478;2023-01-29T10:21:45;96103.09;;;1.62;100.00
19457;BME280;9867;48.094;11.478;2023-01-29T10:24:21;96094.16;;;1.35;100.00
19457;BME280;9867;48.094;11.478;2023-01-29T10:26:51;96102.19;;;1.18;100.00
19457;BME280;9867;48.094;11.478;2023-01-29T10:29:18;96100.69;;;1.05;100.00
19457;BME280;9867;48.094;11.478;2023-01-29T10:31:50;96097.63;;;1.12;100.00
19457;BME280;9867;48.094;11.478;2023-01-29T10:34:24;96103.13;;;1.06;100.00
19457;BME280;9867;48.094;11.478;2023-01-29T10:36:54;96094.97;;;1.25;100.00
19457;BME280;9867;48.094;11.478;2023-01-29T10:39:22;96079.00;;;1.13;100.00
19457;BME280;9867;48.094;11.478;2023-01-29T10:42:01;96091.84;;;0.88;100.00
19457;BME280;9867;48.094;11.478;2023-01-29T10:44:40;96092.84;;;0.74;100.00
19457;BME280;9867;48.094;11.478;2023-01-29T10:47:33;96086.91;;;0.86;100.00
19457;BME280;9867;48.094;11.478;2023-01-29T10:50:24;96089.31;;;0.77;100.00
19457;BME280;9867;48.094;11.478;2023-01-29T10:53:13;96092.06;;;0.85;100.00
19457;BME280;9867;48.094;11.478;2023-01-29T10:55:52;96085.19;;;0.87;100.00
19457;BME280;9867;48.094;11.478;2023-01-29T10:58:31;96086.13;;;0.86;100.00
19457;BME280;9867;48.094;11.478;2023-01-29T11:01:01;96091.16;;;0.86;100.00
19457;BME280;9867;48.094;11.478;2023-01-29T11:03:30;96088.75;;;0.84;100.00
19457;BME280;9867;48.094;11.478;2023-01-29T11:06:03;96089.56;;;1.07;100.00
19457;BME280;9867;48.094;11.478;2023-01-29T11:08:41;96081.06;;;1.08;100.00
19457;BME280;9867;48.094;11.478;2023-01-29T11:11:12;96084.28;;;0.99;100.00
19457;BME280;9867;48.094;11.478;2023-01-29T11:13:42;96080.03;;;1.11;100.00
19457;BME280;9867;48.094;11.478;2023-01-29T11:16:10;96073.13;;;1.01;100.00
19457;BME280;9867;48.094;11.478;2023-01-29T11:18:54;96071.88;;;0.96;100.00
19457;BME280;9867;48.094;11.478;2023-01-29T11:21:23;96072.34;;;1.01;100.00
19457;BME280;9867;48.094;11.478;2023-01-29T11:23:50;96074.19;;;0.88;100.00
19457;BME280;9867;48.094;11.478;2023-01-29T11:26:18;96071.50;;;0.78;100.00
19457;BME280;9867;48.094;11.478;2023-01-29T11:28:48;96069.44;;;0.61;100.00
19457;BME280;9867;48.094;11.478;2023-01-29T11:31:17;96066.00;;;0.73;100.00
19457;BME280;9867;48.094;11.478;2023-01-29T11:33:44;96058.19;;;0.65;100.00
19457;BME280;9867;48.094;11.478;2023-01-29T11:36:28;96063.34;;;0.75;100.00
19457;BME280;9867;48.094;11.478;2023-01-29T11:39:14;96052.44;;;0.52;100.00
19457;BME280;9867;48.094;11.478;2023-01-29T11:41:42;96054.66;;;0.67;100.00
19457;BME280;9867;48.094;11.478;2023-01-29T11:44:34;96048.00;;;0.66;100.00
19457;BME280;9867;48.094;11.478;2023-01-29T11:47:15;96045.34;;;0.79;100.00
19457;BME280;9867;48.094;11.478;2023-01-29T11:49:45;96052.25;;;0.88;100.00
19457;BME280;9867;48.094;11.478;2023-01-29T11:52:13;96047.91;;;0.90;100.00
19457;BME280;9867;48.094;11.478;2023-01-29T11:54:44;96031.13;;;0.89;100.00
19457;BME280;9867;48.094;11.478;2023-01-29T11:57:28;96020.69;;;0.94;100.00
19457;BME280;9867;48.094;11.478;2023-01-29T11:59:57;95996.91;;;0.85;100.00
19457;BME280;9867;48.094;11.478;2023-01-29T12:02:31;95987.38;;;0.89;100.00
19457;BME280;9867;48.094;11.478;2023-01-29T12:05:03;95977.06;;;0.92;100.00
19457;BME280;9867;48.094;11.478;2023-01-29T12:07:32;95977.28;;;0.89;100.00
19457;BME280;9867;48.094;11.478;2023-01-29T12:09:59;95969.69;;;1.00;100.00
19457;BME280;9867;48.094;11.478;2023-01-29T12:12:35;95959.25;;;0.93;100.00
19457;BME280;9867;48.094;11.478;2023-01-29T12:15:09;95969.69;;;1.00;100.00
19457;BME280;9867;48.094;11.478;2023-01-29T12:17:42;95973.81;;;1.12;100.00
19457;BME280;9867;48.094;11.478;2023-01-29T12:20:13;95974.84;;;1.10;100.00
19457;BME280;9867;48.094;11.478;2023-01-29T12:22:46;95976.91;;;1.05;100.00
19457;BME280;9867;48.094;11.478;2023-01-29T12:25:20;95978.81;;;1.23;100.00
19457;BME280;9867;48.094;11.478;2023-01-29T12:27:52;95983.75;;;1.25;100.00
19457;BME280;9867;48.094;11.478;2023-01-29T12:30:26;95985.53;;;1.13;100.00
19457;BME280;9867;48.094;11.478;2023-01-29T12:32:59;95982.41;;;1.10;100.00
19457;BME280;9867;48.094;11.478;2023-01-29T12:35:33;95990.59;;;0.91;100.00
19457;BME280;9867;48.094;11.478;2023-01-29T12:38:05;96001.13;;;0.96;100.00
19457;BME280;9867;48.094;11.478;2023-01-29T12:40:38;95995.41;;;0.72;100.00
19457;BME280;9867;48.094;11.478;2023-01-29T12:43:12;95986.81;;;0.63;100.00
19457;BME280;9867;48.094;11.478;2023-01-29T12:45:41;95976.94;;;0.71;100.00
19457;BME280;9867;48.094;11.478;2023-01-29T12:48:11;95970.84;;;0.74;100.00
19457;BME280;9867;48.094;11.478;2023-01-29T12:50:39;95963.88;;;0.66;100.00
19457;BME280;9867;48.094;11.478;2023-01-29T12:53:15;95972.69;;;0.72;100.00
19457;BME280;9867;48.094;11.478;2023-01-29T12:55:47;95961.22;;;0.90;100.00
19457;BME280;9867;48.094;11.478;2023-01-29T12:58:21;95972.34;;;0.87;100.00
19457;BME280;9867;48.094;11.478;2023-01-29T13:00:51;95960.63;;;0.86;100.00
19457;BME280;9867;48.094;11.478;2023-01-29T13:03:22;95956.97;;;0.79;100.00
19457;BME280;9867;48.094;11.478;2023-01-29T13:05:52;95952.75;;;0.68;100.00
19457;BME280;9867;48.094;11.478;2023-01-29T13:08:25;95937.25;;;0.62;100.00
19457;BME280;9867;48.094;11.478;2023-01-29T13:10:53;95941.16;;;0.66;100.00
19457;BME280;9867;48.094;11.478;2023-01-29T13:13:25;95935.50;;;0.51;100.00
19457;BME280;9867;48.094;11.478;2023-01-29T13:15:54;95935.41;;;0.53;100.00
19457;BME280;9867;48.094;11.478;2023-01-29T13:18:41;95923.38;;;0.45;100.00
19457;BME280;9867;48.094;11.478;2023-01-29T13:21:12;95920.72;;;0.24;100.00